Pine Prairie, LA

9:55 AM CST on December 28, 2014 (GMT -0600)
Jennings | Change Station
CLOSE
Current Station
Airport
Location: Jennings,
Elevation: 23 ft
Nearby Weather Stations

Elev 23 ft 30.24 °N, 92.67 °W | Updated 20 minutes ago

Overcast
Overcast
51 °F
Feels Like 51 °F
N
14
Wind Variable Wind from NNE

Today
High -- | Low -- °F
--% Chance of Precip.
Yesterday
High -- | Low -- °F
Precip. -- in
7:06 AM 5:16 PM
Waxing Crescent, 49% visible
Pressure 30.17 in
Visibility 10.0 miles
Clouds Overcast 700 ft
Dew Point 49 °F
Humidity 92%
Rainfall 0.01 in
Snow Depth Not available.
UV 1 out of 12
Pollen 1.20 out of 12
Air Quality Not available.
Flu Activity Not available.
METAR K3R7 281535Z AUTO 02012KT 10SM OVC007 11/10 A3017 RMK AO2 T01070095

More Conditions Fewer Conditions

Pressure 30.17 in
Visibility 10.0 miles
Clouds Overcast 700 ft
Dew Point 49 °F
Humidity 92%
Rainfall 0.01 in
Snow Depth Not available.
UV 1 out of 12
Pollen 1.20 out of 12
Air Quality Not available.
Flu Activity Not available.
METAR K3R7 281535Z AUTO 02012KT 10SM OVC007 11/10 A3017 RMK AO2 T01070095

More Conditions Fewer Conditions

Nowcast | as of 8:56 am CST on December 28, 2014

Patchy light rain will continue through the morning hours. Rain amounts will be less than a tenth of an inch.

×

10-Day Weather Forecast

Almanac

Astronomy

Dec. 28, 2014 Rise Set
Actual Time
Civil Twilight
Nautical Twilight
Astronomical Twilight
Moon
Length of Visible Light
Length of Day
Tomorrow will be .
, % of the Moon is Illuminated

Today's Extremes

State Highs State Lows

Community

WunderPhotos

Upload Photos

1,781,309 photos uploaded!

WunderBlogs® & News

Nearby

Air Quality

  Air Quality AQ Index Pollutant
Not available.

Snow Depth

Station Depth Elevation

Earthquake Activity

City Distance Mag. Time & Date
Minimum magnitude displayed is 2.5.

Coastal Water Temperatures

Place Temperature

Nearby Weather Stations